createdAt,value
2022-08-24T00:02:26.845Z,99.90
2022-08-24T00:04:53.834Z,99.90
2022-08-24T00:07:27.037Z,99.90
2022-08-24T00:09:55.143Z,99.90
2022-08-24T00:12:22.200Z,99.90
2022-08-24T00:14:49.399Z,99.90
2022-08-24T00:17:16.838Z,99.90
2022-08-24T00:19:43.845Z,99.90
2022-08-24T00:22:10.604Z,99.90
2022-08-24T00:24:37.316Z,99.90
2022-08-24T00:27:04.433Z,99.90
2022-08-24T00:29:31.219Z,99.90
2022-08-24T00:31:58.014Z,99.90
2022-08-24T00:34:26.507Z,99.90
2022-08-24T00:36:53.506Z,99.90
2022-08-24T00:39:20.528Z,99.90
2022-08-24T00:41:48.441Z,99.90
2022-08-24T00:44:16.822Z,99.90
2022-08-24T00:47:02.038Z,99.90
2022-08-24T00:49:37.897Z,99.90
2022-08-24T00:52:06.648Z,99.90
2022-08-24T00:54:36.300Z,99.90
2022-08-24T00:57:05.028Z,99.90
2022-08-24T00:59:36.112Z,99.90
2022-08-24T01:02:15.186Z,99.90
2022-08-24T01:04:49.173Z,99.90
2022-08-24T01:07:16.255Z,99.90
2022-08-24T01:09:42.964Z,99.90
2022-08-24T01:12:09.979Z,99.90
2022-08-24T01:14:37.843Z,99.90
2022-08-24T01:17:23.498Z,99.90
2022-08-24T01:19:51.294Z,99.90
2022-08-24T01:22:39.749Z,99.90
2022-08-24T01:25:07.032Z,99.90
2022-08-24T01:27:34.767Z,99.90
2022-08-24T01:30:02.076Z,99.90
2022-08-24T01:32:28.996Z,99.90
2022-08-24T01:34:56.641Z,99.90
2022-08-24T01:37:23.511Z,99.90
2022-08-24T01:39:52.136Z,99.90
2022-08-24T01:42:18.767Z,99.90
2022-08-24T01:44:46.059Z,99.90
2022-08-24T01:47:13.953Z,99.90
2022-08-24T01:49:42.667Z,99.90
2022-08-24T01:52:10.773Z,99.90
2022-08-24T01:54:39.008Z,99.90
2022-08-24T01:57:10.290Z,99.90
2022-08-24T01:59:37.150Z,99.90
2022-08-24T02:02:12.715Z,99.90
2022-08-24T02:04:39.392Z,99.90
2022-08-24T02:07:06.654Z,99.90
2022-08-24T02:09:33.913Z,99.90
2022-08-24T02:12:00.764Z,99.90
2022-08-24T02:14:30.665Z,99.90
2022-08-24T02:16:59.619Z,99.90
2022-08-24T02:19:27.253Z,99.90
2022-08-24T02:21:53.933Z,99.90
2022-08-24T02:24:20.638Z,99.90
2022-08-24T02:26:47.358Z,99.90
2022-08-24T02:29:13.975Z,99.90
2022-08-24T02:31:40.586Z,99.90
2022-08-24T02:34:07.311Z,99.90
2022-08-24T02:36:34.004Z,99.90
2022-08-24T02:39:00.669Z,99.90
2022-08-24T02:41:27.894Z,99.90
2022-08-24T02:43:55.469Z,99.90
2022-08-24T02:46:23.443Z,99.90
2022-08-24T02:48:56.807Z,99.90
2022-08-24T02:51:44.007Z,99.90
2022-08-24T02:54:12.873Z,99.90
2022-08-24T02:56:39.872Z,99.90
2022-08-24T02:59:06.941Z,99.90
2022-08-24T03:01:33.733Z,99.90
2022-08-24T03:04:00.367Z,99.90
2022-08-24T03:06:27.059Z,99.90
2022-08-24T03:08:56.631Z,99.90
2022-08-24T03:11:27.708Z,99.90
2022-08-24T03:13:55.455Z,99.90
2022-08-24T03:16:22.199Z,99.90
2022-08-24T03:18:48.801Z,99.90
2022-08-24T03:21:15.611Z,99.90
2022-08-24T03:23:42.218Z,99.90
2022-08-24T03:26:08.945Z,99.90
2022-08-24T03:28:35.636Z,99.90
2022-08-24T03:31:03.664Z,99.90
2022-08-24T03:33:30.348Z,99.90
2022-08-24T03:35:56.971Z,99.90
2022-08-24T03:38:23.702Z,99.90
2022-08-24T03:40:50.939Z,99.90
2022-08-24T03:43:36.760Z,99.90
2022-08-24T03:46:05.462Z,99.90
2022-08-24T03:48:32.110Z,99.90
2022-08-24T03:50:59.126Z,99.90
2022-08-24T03:53:25.768Z,99.90
2022-08-24T03:55:52.390Z,99.90
2022-08-24T03:58:19.043Z,99.90
2022-08-24T04:00:45.871Z,99.90
2022-08-24T04:03:12.886Z,99.90
2022-08-24T04:05:40.167Z,99.90
2022-08-24T04:08:07.212Z,99.90
2022-08-24T04:10:34.635Z,99.90
2022-08-24T04:13:01.652Z,99.90
2022-08-24T04:15:30.033Z,99.90
2022-08-24T04:17:56.771Z,99.90
2022-08-24T04:20:24.114Z,99.90
2022-08-24T04:22:51.437Z,99.90
2022-08-24T04:25:24.764Z,99.90
2022-08-24T04:27:51.887Z,99.90
2022-08-24T04:30:18.709Z,99.90
2022-08-24T04:32:45.330Z,99.90
2022-08-24T04:35:12.047Z,99.90
2022-08-24T04:37:38.723Z,99.90
2022-08-24T04:40:06.222Z,99.90
2022-08-24T04:42:33.386Z,99.90
2022-08-24T04:45:00.231Z,99.90
2022-08-24T04:47:26.871Z,99.90
2022-08-24T04:49:53.649Z,99.90
2022-08-24T04:52:21.438Z,99.90
2022-08-24T04:54:48.142Z,99.90
2022-08-24T04:57:18.138Z,99.90
2022-08-24T04:59:45.467Z,99.90
2022-08-24T05:02:12.403Z,99.90
2022-08-24T05:04:39.176Z,99.90
2022-08-24T05:07:05.801Z,99.90
2022-08-24T05:09:34.347Z,99.90
2022-08-24T05:12:01.887Z,99.90
2022-08-24T05:14:29.272Z,99.90
2022-08-24T05:16:56.286Z,99.90
2022-08-24T05:19:23.670Z,99.90
2022-08-24T05:21:50.461Z,99.90
2022-08-24T05:24:17.171Z,99.90
2022-08-24T05:26:43.770Z,99.90
2022-08-24T05:29:10.787Z,99.90
2022-08-24T05:31:39.870Z,99.90
2022-08-24T05:34:06.572Z,99.90
2022-08-24T05:36:34.344Z,99.90
2022-08-24T05:39:02.464Z,99.90
2022-08-24T05:41:29.430Z,99.90
2022-08-24T05:43:56.084Z,99.90
2022-08-24T05:46:22.908Z,99.90
2022-08-24T05:48:49.977Z,99.90
2022-08-24T05:51:20.540Z,99.90
2022-08-24T05:53:47.143Z,99.90
2022-08-24T05:56:15.348Z,99.90
2022-08-24T05:58:42.181Z,99.90
2022-08-24T06:01:13.701Z,99.90
2022-08-24T06:03:40.648Z,99.90
2022-08-24T06:06:08.573Z,99.90
2022-08-24T06:08:41.498Z,99.90
2022-08-24T06:11:08.921Z,99.90
2022-08-24T06:13:36.288Z,99.90
2022-08-24T06:16:20.290Z,99.90
2022-08-24T06:18:49.509Z,99.90
2022-08-24T06:21:17.652Z,99.90
2022-08-24T06:23:45.387Z,99.90
2022-08-24T06:26:31.222Z,99.90
2022-08-24T06:28:58.515Z,99.90
2022-08-24T06:31:25.331Z,99.90
2022-08-24T06:33:52.067Z,99.90
2022-08-24T06:36:18.746Z,99.90
2022-08-24T06:38:49.410Z,99.90
2022-08-24T06:41:16.897Z,99.90
2022-08-24T06:43:44.197Z,99.90
2022-08-24T06:46:10.883Z,99.90
2022-08-24T06:48:37.825Z,99.90
2022-08-24T06:51:08.449Z,99.90
2022-08-24T06:53:35.973Z,99.90
2022-08-24T06:56:02.943Z,99.90
2022-08-24T06:58:29.594Z,99.90
2022-08-24T07:00:57.012Z,99.90
2022-08-24T07:03:24.552Z,99.90
2022-08-24T07:05:52.920Z,99.90
2022-08-24T07:08:20.234Z,99.90
2022-08-24T07:10:46.833Z,99.90
2022-08-24T07:13:14.579Z,99.90
2022-08-24T07:15:44.821Z,99.90
2022-08-24T07:18:12.769Z,99.90
2022-08-24T07:20:39.529Z,99.90
2022-08-24T07:23:06.361Z,99.90
2022-08-24T07:25:33.727Z,99.90
2022-08-24T07:28:05.640Z,99.90
2022-08-24T07:30:35.047Z,99.90
2022-08-24T07:33:01.736Z,99.90
2022-08-24T07:35:28.922Z,99.90
2022-08-24T07:37:56.472Z,99.90
2022-08-24T07:40:23.811Z,99.90
2022-08-24T07:42:54.348Z,99.90
2022-08-24T07:45:21.221Z,99.90
2022-08-24T07:47:55.000Z,99.90
2022-08-24T07:50:22.306Z,99.90
2022-08-24T07:52:48.923Z,99.90
2022-08-24T07:55:15.831Z,99.90
2022-08-24T07:57:45.155Z,99.90
2022-08-24T08:00:13.268Z,99.90
2022-08-24T08:02:42.912Z,99.90
2022-08-24T08:05:10.353Z,99.90
2022-08-24T08:07:37.079Z,99.90
2022-08-24T08:10:04.064Z,99.90
2022-08-24T08:12:30.660Z,99.90
2022-08-24T08:14:57.805Z,99.90
2022-08-24T08:17:25.337Z,99.90
2022-08-24T08:19:52.001Z,99.90
2022-08-24T08:22:37.210Z,99.90
2022-08-24T08:25:07.984Z,99.90
2022-08-24T08:27:35.864Z,99.90
2022-08-24T08:30:06.350Z,99.90
2022-08-24T08:32:33.031Z,99.90
2022-08-24T08:35:02.143Z,99.90
2022-08-24T08:37:29.440Z,99.90
2022-08-24T08:39:56.182Z,99.90
2022-08-24T08:42:33.043Z,99.90
2022-08-24T08:44:59.816Z,99.90
2022-08-24T08:47:26.640Z,99.90
2022-08-24T08:50:05.349Z,99.90
2022-08-24T08:52:48.034Z,99.90
2022-08-24T08:55:24.148Z,99.90
2022-08-24T08:57:56.707Z,99.90
2022-08-24T09:00:32.013Z,99.90
2022-08-24T09:03:26.943Z,99.90
2022-08-24T09:06:02.452Z,99.90
2022-08-24T09:08:32.065Z,99.90
2022-08-24T09:11:22.060Z,99.90
2022-08-24T09:14:10.293Z,99.90
2022-08-24T09:16:55.623Z,99.90
2022-08-24T09:19:26.058Z,99.90
2022-08-24T09:22:02.368Z,99.90
2022-08-24T09:24:29.047Z,99.90
2022-08-24T09:27:10.283Z,99.90
2022-08-24T09:29:43.075Z,99.90
2022-08-24T09:32:21.217Z,99.90
2022-08-24T09:34:53.829Z,99.40
2022-08-24T09:37:20.427Z,99.10
2022-08-24T09:39:59.532Z,98.50
2022-08-24T09:42:40.888Z,98.10
2022-08-24T09:45:19.475Z,97.10
2022-08-24T09:47:49.371Z,96.20
2022-08-24T09:50:35.129Z,96.00
2022-08-24T09:53:03.403Z,95.40
2022-08-24T09:55:36.216Z,95.90
2022-08-24T09:58:05.959Z,94.80
2022-08-24T10:00:45.153Z,95.00
2022-08-24T10:03:17.851Z,92.90
2022-08-24T10:05:51.330Z,93.20
2022-08-24T10:08:18.376Z,93.50
2022-08-24T10:10:57.401Z,90.70
2022-08-24T10:13:38.374Z,91.90
2022-08-24T10:16:20.966Z,91.30
2022-08-24T10:19:01.246Z,90.70
2022-08-24T10:21:34.868Z,90.70
2022-08-24T10:24:01.483Z,90.60
2022-08-24T10:26:43.990Z,90.50
2022-08-24T10:29:31.631Z,90.60
2022-08-24T10:32:17.127Z,90.90
2022-08-24T10:34:52.139Z,90.70
2022-08-24T10:37:26.128Z,90.00
2022-08-24T10:40:09.403Z,89.70
2022-08-24T10:42:57.850Z,90.00
2022-08-24T10:45:31.383Z,89.00
2022-08-24T10:47:58.113Z,88.70
2022-08-24T10:50:31.483Z,88.40
2022-08-24T10:53:17.762Z,86.00
2022-08-24T10:55:44.695Z,83.60
2022-08-24T10:58:26.426Z,82.80
2022-08-24T11:00:53.200Z,81.30
2022-08-24T11:03:28.195Z,82.60
2022-08-24T11:05:56.144Z,85.80
2022-08-24T11:08:22.789Z,83.50
2022-08-24T11:11:07.774Z,83.90
2022-08-24T11:13:35.040Z,83.30
2022-08-24T11:16:02.378Z,84.10
2022-08-24T11:18:46.559Z,83.80
2022-08-24T11:21:19.831Z,85.00
2022-08-24T11:23:47.169Z,85.40
2022-08-24T11:26:20.058Z,84.50
2022-08-24T11:28:50.691Z,83.90
2022-08-24T11:31:22.570Z,84.20
2022-08-24T11:33:50.322Z,84.50
2022-08-24T11:36:21.315Z,85.00
2022-08-24T11:38:48.738Z,83.60
2022-08-24T11:41:20.680Z,84.10
2022-08-24T11:43:57.255Z,84.40
2022-08-24T11:46:28.873Z,84.20
2022-08-24T11:49:14.286Z,83.80
2022-08-24T11:51:59.362Z,85.80
2022-08-24T11:54:32.201Z,85.60
2022-08-24T11:57:10.686Z,84.80
2022-08-24T11:59:48.270Z,86.30
2022-08-24T12:02:22.909Z,84.10
2022-08-24T12:04:55.567Z,83.90
2022-08-24T12:07:37.243Z,82.50
2022-08-24T12:10:24.264Z,81.30
2022-08-24T12:12:54.543Z,82.40
2022-08-24T12:15:30.475Z,83.00
2022-08-24T12:18:08.593Z,84.80
2022-08-24T12:20:38.498Z,83.10
2022-08-24T12:23:08.739Z,82.50
2022-08-24T12:25:54.622Z,84.20
2022-08-24T12:28:24.368Z,82.60
2022-08-24T12:30:52.623Z,82.80
2022-08-24T12:33:23.004Z,80.60
2022-08-24T12:35:54.237Z,81.40
2022-08-24T12:38:20.987Z,81.00
2022-08-24T12:40:52.545Z,81.10
2022-08-24T12:43:36.070Z,81.30
2022-08-24T12:46:03.827Z,80.60
2022-08-24T12:48:34.145Z,80.00
2022-08-24T12:51:09.731Z,81.20
2022-08-24T12:53:51.260Z,80.90
2022-08-24T12:56:27.092Z,80.40
2022-08-24T12:58:59.907Z,81.00
2022-08-24T13:01:29.450Z,80.80
2022-08-24T13:04:16.133Z,80.90
2022-08-24T13:06:45.550Z,79.70
2022-08-24T13:09:30.903Z,78.30
2022-08-24T13:11:59.742Z,78.90
2022-08-24T13:14:28.580Z,77.60
2022-08-24T13:16:58.164Z,76.30
2022-08-24T13:19:33.973Z,75.60
2022-08-24T13:22:09.928Z,75.70
2022-08-24T13:24:38.505Z,75.40
2022-08-24T13:27:14.253Z,76.10
2022-08-24T13:29:43.850Z,75.90
2022-08-24T13:32:17.575Z,75.10
2022-08-24T13:34:46.333Z,74.30
2022-08-24T13:37:14.316Z,74.50
2022-08-24T13:39:45.713Z,75.40
2022-08-24T13:42:22.791Z,74.40
2022-08-24T13:44:49.459Z,74.60
2022-08-24T13:47:24.641Z,75.30
2022-08-24T13:50:03.672Z,73.80
2022-08-24T13:52:37.521Z,72.40
2022-08-24T13:55:09.356Z,71.50
2022-08-24T13:57:39.462Z,71.50
2022-08-24T14:00:16.476Z,70.70
2022-08-24T14:02:56.218Z,71.30
2022-08-24T14:05:27.578Z,71.70
2022-08-24T14:07:56.868Z,71.10
2022-08-24T14:10:32.737Z,72.00
2022-08-24T14:13:17.938Z,72.60
2022-08-24T14:15:51.319Z,70.00
2022-08-24T14:18:37.776Z,72.20
2022-08-24T14:21:09.106Z,68.00
2022-08-24T14:23:55.699Z,68.40
2022-08-24T14:26:40.818Z,68.30
2022-08-24T14:29:16.591Z,68.70
2022-08-24T14:31:59.985Z,68.40
2022-08-24T14:34:35.668Z,67.30
2022-08-24T14:37:18.589Z,65.80
2022-08-24T14:39:51.244Z,65.10
2022-08-24T14:42:38.197Z,65.80
2022-08-24T14:45:12.737Z,66.50
2022-08-24T14:47:50.523Z,68.40
2022-08-24T14:50:20.570Z,68.40
2022-08-24T14:52:47.231Z,69.50
2022-08-24T14:55:29.457Z,67.70
2022-08-24T14:58:05.246Z,70.30
2022-08-24T15:00:47.063Z,71.30
2022-08-24T15:03:32.396Z,71.80
2022-08-24T15:06:23.039Z,71.40
2022-08-24T15:08:45.880Z,70.70
2022-08-24T15:11:23.915Z,68.30
2022-08-24T15:13:58.583Z,64.10
2022-08-24T15:16:34.672Z,67.80
2022-08-24T15:19:11.662Z,69.00
2022-08-24T15:21:51.790Z,69.90
2022-08-24T15:27:14.045Z,74.50
2022-08-24T15:29:50.554Z,76.80
2022-08-24T15:32:17.225Z,77.60
2022-08-24T15:34:48.996Z,77.60
2022-08-24T15:37:24.769Z,78.20
2022-08-24T15:39:51.493Z,79.60
2022-08-24T15:42:18.328Z,80.20
2022-08-24T15:44:47.035Z,80.60
2022-08-24T15:47:17.719Z,81.00
2022-08-24T15:49:50.071Z,82.30
2022-08-24T15:52:37.167Z,82.90
2022-08-24T15:55:04.898Z,83.20
2022-08-24T15:57:35.259Z,84.00
2022-08-24T16:00:07.069Z,83.40
2022-08-24T16:02:36.776Z,83.80
2022-08-24T16:05:09.332Z,82.90
2022-08-24T16:07:54.873Z,82.50
2022-08-24T16:10:40.301Z,82.30
2022-08-24T16:13:19.519Z,86.00
2022-08-24T16:15:46.698Z,83.70
2022-08-24T16:18:14.155Z,80.50
2022-08-24T16:20:40.913Z,79.40
2022-08-24T16:23:10.286Z,86.50
2022-08-24T16:25:42.933Z,86.30
2022-08-24T16:28:20.153Z,87.50
2022-08-24T16:30:50.089Z,85.90
2022-08-24T16:33:33.136Z,86.60
2022-08-24T16:36:00.787Z,86.90
2022-08-24T16:38:30.505Z,87.80
2022-08-24T16:40:58.232Z,88.60
2022-08-24T16:43:25.009Z,89.30
2022-08-24T16:45:51.997Z,90.00
2022-08-24T16:48:18.920Z,90.30
2022-08-24T16:50:50.535Z,90.60
2022-08-24T16:53:17.688Z,91.60
2022-08-24T16:55:44.369Z,91.40
2022-08-24T16:58:11.213Z,91.70
2022-08-24T17:00:37.820Z,91.90
2022-08-24T17:03:04.485Z,92.00
2022-08-24T17:05:31.208Z,92.10
2022-08-24T17:07:59.072Z,92.60
2022-08-24T17:10:26.243Z,92.60
2022-08-24T17:12:53.242Z,92.80
2022-08-24T17:15:20.444Z,93.30
2022-08-24T17:18:05.022Z,93.00
2022-08-24T17:20:32.124Z,93.10
2022-08-24T17:22:58.819Z,93.40
2022-08-24T17:25:26.012Z,93.70
2022-08-24T17:27:53.818Z,93.80
2022-08-24T17:30:22.950Z,94.30
2022-08-24T17:32:51.457Z,94.60
2022-08-24T17:35:19.992Z,94.70
2022-08-24T17:37:50.984Z,95.10
2022-08-24T17:40:20.070Z,95.30
2022-08-24T17:42:51.115Z,95.50
2022-08-24T17:45:18.579Z,96.00
2022-08-24T17:47:46.004Z,96.00
2022-08-24T17:50:13.337Z,96.10
2022-08-24T17:52:40.616Z,96.30
2022-08-24T17:55:09.475Z,96.90
2022-08-24T17:57:36.535Z,97.00
2022-08-24T18:00:04.086Z,97.40
2022-08-24T18:02:31.164Z,97.40
2022-08-24T18:04:57.938Z,97.50
2022-08-24T18:07:49.458Z,97.70
2022-08-24T18:10:19.239Z,98.00
2022-08-24T18:12:46.485Z,98.60
2022-08-24T18:15:13.454Z,98.50
2022-08-24T18:17:42.047Z,98.70
2022-08-24T18:20:09.904Z,98.70
2022-08-24T18:22:36.812Z,99.00
2022-08-24T18:25:03.716Z,99.50
2022-08-24T18:27:31.073Z,99.90
2022-08-24T18:30:03.052Z,99.90
2022-08-24T18:32:30.943Z,99.90
2022-08-24T18:34:58.769Z,99.90
2022-08-24T18:37:25.360Z,99.90
2022-08-24T18:39:52.082Z,99.90
2022-08-24T18:42:18.780Z,99.90
2022-08-24T18:44:45.585Z,99.90
2022-08-24T18:47:12.186Z,99.90
2022-08-24T18:49:38.965Z,99.90
2022-08-24T18:52:07.176Z,99.90
2022-08-24T18:54:36.332Z,99.90
2022-08-24T18:57:04.198Z,99.90
2022-08-24T18:59:30.836Z,99.90
2022-08-24T19:02:16.241Z,99.90
2022-08-24T19:04:44.829Z,99.90
2022-08-24T19:07:11.478Z,99.90
2022-08-24T19:09:38.230Z,99.90
2022-08-24T19:12:05.586Z,99.90
2022-08-24T19:14:32.900Z,99.90
2022-08-24T19:16:59.829Z,99.90
2022-08-24T19:19:26.539Z,99.90
2022-08-24T19:21:53.429Z,99.90
2022-08-24T19:24:24.063Z,99.90
2022-08-24T19:26:50.696Z,99.90
2022-08-24T19:29:33.195Z,99.90
2022-08-24T19:32:06.016Z,99.90
2022-08-24T19:34:37.014Z,99.90
2022-08-24T19:37:04.652Z,99.90
2022-08-24T19:39:31.480Z,99.90
2022-08-24T19:41:58.769Z,99.90
2022-08-24T19:44:51.960Z,99.90
2022-08-24T19:47:18.763Z,99.90
2022-08-24T19:49:45.731Z,99.90
2022-08-24T19:52:13.409Z,99.90
2022-08-24T19:54:42.901Z,99.90
2022-08-24T19:57:29.089Z,99.90
2022-08-24T19:59:58.436Z,99.90
2022-08-24T20:02:25.223Z,99.90
2022-08-24T20:04:51.907Z,99.90
2022-08-24T20:07:18.799Z,99.90
2022-08-24T20:09:45.455Z,99.90
2022-08-24T20:12:12.381Z,99.90
2022-08-24T20:14:39.102Z,99.90
2022-08-24T20:17:05.785Z,99.90
2022-08-24T20:19:34.550Z,99.90
2022-08-24T20:22:01.160Z,99.90
2022-08-24T20:24:29.737Z,99.90
2022-08-24T20:26:56.433Z,99.90
2022-08-24T20:29:23.264Z,99.90
2022-08-24T20:31:52.316Z,99.90
2022-08-24T20:34:18.977Z,99.90
2022-08-24T20:36:48.147Z,99.90
2022-08-24T20:39:17.905Z,99.90
2022-08-24T20:41:45.298Z,99.90
2022-08-24T20:44:11.985Z,99.90
2022-08-24T20:46:39.801Z,99.90
2022-08-24T20:49:07.366Z,99.90
2022-08-24T20:51:34.315Z,99.90
2022-08-24T20:54:05.638Z,99.90
2022-08-24T20:56:33.411Z,99.90
2022-08-24T20:59:11.104Z,99.90
2022-08-24T21:01:38.697Z,99.90
2022-08-24T21:04:05.762Z,99.90
2022-08-24T21:06:32.977Z,99.90
2022-08-24T21:09:00.127Z,99.90
2022-08-24T21:11:26.787Z,99.90
2022-08-24T21:13:53.448Z,99.90
2022-08-24T21:16:20.091Z,99.90
2022-08-24T21:18:47.187Z,99.90
2022-08-24T21:21:14.236Z,99.90
2022-08-24T21:23:41.009Z,99.90
2022-08-24T21:26:10.266Z,99.90
2022-08-24T21:28:40.765Z,99.90
2022-08-24T21:31:07.654Z,99.90
2022-08-24T21:33:53.470Z,99.90
2022-08-24T21:36:21.203Z,99.90
2022-08-24T21:38:48.176Z,99.90
2022-08-24T21:41:15.729Z,99.90
2022-08-24T21:43:42.369Z,99.90
2022-08-24T21:46:09.259Z,99.90
2022-08-24T21:48:37.080Z,99.90
2022-08-24T21:51:03.678Z,99.90
2022-08-24T21:53:30.281Z,99.90
2022-08-24T21:56:00.260Z,99.90
2022-08-24T21:58:27.331Z,99.90
2022-08-24T22:00:58.861Z,99.90
2022-08-24T22:03:31.723Z,99.90
2022-08-24T22:06:07.924Z,99.90
2022-08-24T22:08:34.894Z,99.90
2022-08-24T22:11:01.540Z,99.90
2022-08-24T22:13:28.206Z,99.90
2022-08-24T22:15:54.879Z,99.90
2022-08-24T22:18:21.576Z,99.90
2022-08-24T22:20:48.228Z,99.90
2022-08-24T22:23:14.854Z,99.90
2022-08-24T22:25:41.452Z,99.90
2022-08-24T22:28:08.368Z,99.90
2022-08-24T22:30:35.033Z,99.90
2022-08-24T22:33:02.440Z,99.90
2022-08-24T22:35:29.220Z,99.90
2022-08-24T22:37:58.556Z,99.90
2022-08-24T22:40:25.288Z,99.90
2022-08-24T22:42:52.851Z,99.90
2022-08-24T22:45:20.012Z,99.90
2022-08-24T22:47:46.670Z,99.90
2022-08-24T22:50:13.308Z,99.90
2022-08-24T22:52:40.053Z,99.90
2022-08-24T22:55:06.969Z,99.90
2022-08-24T22:57:34.464Z,99.90
2022-08-24T23:00:01.407Z,99.90
2022-08-24T23:02:28.036Z,99.90
2022-08-24T23:04:54.711Z,99.90
2022-08-24T23:07:21.519Z,99.90
2022-08-24T23:09:48.294Z,99.90
2022-08-24T23:12:16.763Z,99.90
2022-08-24T23:14:43.529Z,99.90
2022-08-24T23:17:10.762Z,99.90
2022-08-24T23:19:56.150Z,99.90
2022-08-24T23:22:22.946Z,99.90
2022-08-24T23:24:49.661Z,99.90
2022-08-24T23:27:17.185Z,99.90
2022-08-24T23:29:44.592Z,99.90
2022-08-24T23:32:11.896Z,99.90
2022-08-24T23:34:38.832Z,99.90
2022-08-24T23:37:05.492Z,99.90
2022-08-24T23:39:32.091Z,99.90
2022-08-24T23:41:58.779Z,99.90
2022-08-24T23:44:27.027Z,99.90
2022-08-24T23:46:53.980Z,99.90
2022-08-24T23:49:21.244Z,99.90
2022-08-24T23:51:48.420Z,99.90
2022-08-24T23:54:16.163Z,99.90
2022-08-24T23:56:44.025Z,99.90
2022-08-24T23:59:13.967Z,99.90
